Time;durP1;ratioP1;P1;durP2;ratioP2;P2;SDS_P1;SDS_P2;PMS_P1;PMS_P2;Temp;Humidity;BMP_temperature;BMP_pressure;BME280_temperature;BME280_humidity;BME280_pressure;Samples;Min_cycle;Max_cycle;Signal;HPM_P1;HPM_P2
2024/04/14 00:00:56;;;;;;;1999.90;999.90;;;19.10;99.90;;;;;;5312223;26;20045;-79
2024/04/14 00:03:22;;;;;;;1999.90;999.90;;;19.00;99.90;;;;;;5312306;27;20029;-78
2024/04/14 00:05:49;;;;;;;1999.90;999.90;;;18.90;99.90;;;;;;5312138;26;20042;-79
2024/04/14 00:08:15;;;;;;;1999.90;999.90;;;18.90;99.90;;;;;;5311583;26;20038;-79
2024/04/14 00:10:42;;;;;;;1999.90;999.90;;;18.80;99.90;;;;;;5311663;26;20042;-79
2024/04/14 00:13:08;;;;;;;1999.90;999.90;;;18.90;99.90;;;;;;5310567;27;20017;-79
2024/04/14 00:15:34;;;;;;;1999.90;999.90;;;18.80;99.90;;;;;;5310912;26;20045;-79
2024/04/14 00:18:00;;;;;;;1999.90;999.90;;;18.80;99.90;;;;;;5313503;26;20034;-79
2024/04/14 00:20:26;;;;;;;1999.90;999.90;;;18.80;99.90;;;;;;5311519;26;20045;-79
2024/04/14 00:22:52;;;;;;;1999.90;999.90;;;18.70;99.90;;;;;;5311619;27;20033;-79
2024/04/14 00:25:19;;;;;;;1999.90;999.90;;;18.60;99.90;;;;;;5311462;26;20030;-79
2024/04/14 00:27:45;;;;;;;1999.90;999.90;;;18.50;99.90;;;;;;5311832;26;20026;-78
2024/04/14 00:30:11;;;;;;;1999.90;999.90;;;18.40;99.90;;;;;;5311270;26;20025;-79
2024/04/14 00:32:38;;;;;;;1999.90;999.90;;;18.40;99.90;;;;;;5311945;27;20022;-79
2024/04/14 00:35:04;;;;;;;1999.90;999.90;;;18.30;99.90;;;;;;5311429;26;20022;-79
2024/04/14 00:37:30;;;;;;;1999.90;999.90;;;18.30;99.90;;;;;;5342280;26;20037;-79
2024/04/14 00:39:56;;;;;;;1999.90;999.90;;;18.20;99.90;;;;;;5346892;26;20373;-80
2024/04/14 00:42:22;;;;;;;1999.90;999.90;;;18.20;99.90;;;;;;5313517;26;20030;-80
2024/04/14 00:44:48;;;;;;;1999.90;999.90;;;18.20;99.90;;;;;;5311687;27;20041;-82
2024/04/14 00:47:14;;;;;;;1999.90;999.90;;;18.10;99.90;;;;;;5333979;26;20041;-80
2024/04/14 00:49:40;;;;;;;1999.90;999.90;;;18.10;99.90;;;;;;5346485;26;20044;-72
2024/04/14 00:52:07;;;;;;;1999.90;999.90;;;18.10;99.90;;;;;;5342881;26;20469;-72
2024/04/14 00:54:33;;;;;;;1999.90;999.90;;;18.10;99.90;;;;;;5346759;26;20024;-72
2024/04/14 00:57:00;;;;;;;1999.90;999.90;;;18.00;99.90;;;;;;5319235;26;20041;-72
2024/04/14 00:59:26;;;;;;;1999.90;999.90;;;18.00;99.90;;;;;;5281873;27;20033;-72
2024/04/14 01:01:52;;;;;;;1999.90;999.90;;;17.90;99.90;;;;;;5280522;26;20057;-72
2024/04/14 01:04:18;;;;;;;1999.90;999.90;;;17.90;99.90;;;;;;5312037;26;20033;-72
2024/04/14 01:06:45;;;;;;;1999.90;999.90;;;17.80;99.90;;;;;;5311223;26;20379;-71
2024/04/14 01:09:11;;;;;;;1999.90;999.90;;;17.60;99.90;;;;;;5310124;27;20026;-72
2024/04/14 01:11:37;;;;;;;1999.90;999.90;;;17.40;99.90;;;;;;5280933;27;20037;-72
2024/04/14 01:14:07;;;;;;;1999.90;999.90;;;17.40;99.90;;;;;;5311991;26;20034;-72
2024/04/14 01:16:36;;;;;;;1999.90;999.90;;;17.30;99.90;;;;;;5311096;26;20046;-72
2024/04/14 01:19:05;;;;;;;1999.90;999.90;;;17.20;99.90;;;;;;5311835;26;20026;-72
2024/04/14 01:21:34;;;;;;;1999.90;999.90;;;17.00;99.90;;;;;;5310619;26;20033;-72
2024/04/14 01:24:00;;;;;;;1999.90;999.90;;;17.00;99.90;;;;;;5311290;27;20029;-72
2024/04/14 01:26:26;;;;;;;1999.90;999.90;;;16.90;99.90;;;;;;5310994;26;20132;-72
2024/04/14 01:28:52;;;;;;;1999.90;999.90;;;16.60;99.90;;;;;;5311148;26;20486;-72
2024/04/14 01:31:19;;;;;;;1999.90;999.90;;;16.40;99.90;;;;;;5310945;26;20030;-72
2024/04/14 01:33:45;;;;;;;1999.90;999.90;;;16.30;99.90;;;;;;5311645;26;20034;-72
2024/04/14 01:36:11;;;;;;;1999.90;999.90;;;16.20;99.90;;;;;;5323773;26;20036;-72
2024/04/14 01:38:37;;;;;;;1999.90;999.90;;;16.10;99.90;;;;;;5345559;26;20372;-72
2024/04/14 01:41:04;;;;;;;1999.90;999.90;;;16.10;99.90;;;;;;5331772;26;20029;-72
2024/04/14 01:43:30;;;;;;;1999.90;999.90;;;15.90;99.90;;;;;;5311374;26;20030;-72
2024/04/14 01:45:56;;;;;;;1999.90;999.90;;;15.60;99.90;;;;;;5314503;26;20378;-72
2024/04/14 01:48:22;;;;;;;1999.90;999.90;;;15.50;99.90;;;;;;5345875;26;20029;-72
2024/04/14 01:50:48;;;;;;;1999.90;999.90;;;15.40;99.90;;;;;;5344193;26;20040;-79
2024/04/14 01:53:15;;;;;;;1999.90;999.90;;;15.60;99.90;;;;;;5345005;26;20029;-80
2024/04/14 01:55:45;;;;;;;1999.90;999.90;;;15.60;99.90;;;;;;5337468;26;20034;-80
2024/04/14 01:58:11;;;;;;;1999.90;999.90;;;15.60;99.90;;;;;;5309110;27;20475;-80
2024/04/14 02:00:37;;;;;;;1999.90;999.90;;;15.50;99.90;;;;;;5316582;26;20052;-79
2024/04/14 02:03:03;;;;;;;1999.90;999.90;;;15.20;99.90;;;;;;5340543;26;20037;-79
2024/04/14 02:05:29;;;;;;;1999.90;999.90;;;15.20;99.90;;;;;;5319748;26;20020;-79
2024/04/14 02:07:55;;;;;;;1999.90;999.90;;;15.20;99.90;;;;;;5320754;26;20061;-79
2024/04/14 02:10:21;;;;;;;1999.90;999.90;;;15.20;99.90;;;;;;5338578;26;20021;-80
2024/04/14 02:12:48;;;;;;;1999.90;999.90;;;15.10;99.90;;;;;;5306714;27;20468;-79
2024/04/14 02:15:14;;;;;;;1999.90;999.90;;;15.10;99.90;;;;;;5319566;26;20041;-79
2024/04/14 02:17:40;;;;;;;1999.90;999.90;;;14.90;99.90;;;;;;5309613;27;20027;-79
2024/04/14 02:20:06;;;;;;;1999.90;999.90;;;15.00;99.90;;;;;;5311310;27;20037;-79
2024/04/14 02:22:33;;;;;;;1999.90;999.90;;;15.00;99.90;;;;;;5311923;26;20038;-79
2024/04/14 02:24:59;;;;;;;1999.90;999.90;;;14.90;99.90;;;;;;5342015;26;20041;-79
2024/04/14 02:27:25;;;;;;;1999.90;999.90;;;14.80;99.90;;;;;;5313463;26;20443;-79
2024/04/14 02:29:51;;;;;;;1999.90;999.90;;;14.70;99.90;;;;;;5310182;27;20021;-80
2024/04/14 02:32:18;;;;;;;1999.90;999.90;;;14.70;99.90;;;;;;5312007;26;20046;-80
2024/04/14 02:34:44;;;;;;;1999.90;999.90;;;14.70;99.90;;;;;;5311356;26;20021;-78
2024/04/14 02:37:10;;;;;;;1999.90;999.90;;;14.60;99.90;;;;;;5339241;26;20041;-79
2024/04/14 02:39:36;;;;;;;1999.90;999.90;;;14.60;99.90;;;;;;5348185;26;20017;-79
2024/04/14 02:42:03;;;;;;;1999.90;999.90;;;14.70;99.90;;;;;;5320313;26;20034;-79
2024/04/14 02:44:29;;;;;;;1999.90;999.90;;;14.70;99.90;;;;;;5313201;26;20038;-80
2024/04/14 02:46:55;;;;;;;1999.90;999.90;;;14.70;99.90;;;;;;5331706;26;20037;-80
2024/04/14 02:49:21;;;;;;;1999.90;999.90;;;14.70;99.90;;;;;;5347756;26;20021;-79
2024/04/14 02:51:47;;;;;;;1999.90;999.90;;;14.60;99.90;;;;;;5347315;26;20366;-80
2024/04/14 02:54:13;;;;;;;1999.90;999.90;;;14.50;99.90;;;;;;5348307;26;20037;-80
2024/04/14 02:56:39;;;;;;;1999.90;999.90;;;14.40;99.90;;;;;;5325681;26;20034;-80
2024/04/14 02:59:05;;;;;;;1999.90;999.90;;;14.30;99.90;;;;;;5312886;27;20046;-80
2024/04/14 03:01:32;;;;;;;1999.90;999.90;;;14.20;99.90;;;;;;5311394;26;20042;-80
2024/04/14 03:03:59;;;;;;;1999.90;999.90;;;14.20;99.90;;;;;;5313142;27;20030;-79
2024/04/14 03:06:25;;;;;;;1999.90;999.90;;;14.10;99.90;;;;;;5313390;26;20022;-79
2024/04/14 03:08:51;;;;;;;1999.90;999.90;;;14.00;99.90;;;;;;5314073;26;20021;-79
2024/04/14 03:11:17;;;;;;;1999.90;999.90;;;13.80;99.90;;;;;;5312382;26;20054;-79
2024/04/14 03:13:43;;;;;;;1999.90;999.90;;;13.80;99.90;;;;;;5313051;27;20034;-79
2024/04/14 03:16:09;;;;;;;1999.90;999.90;;;13.80;99.90;;;;;;5311431;26;20042;-79
2024/04/14 03:18:35;;;;;;;1999.90;999.90;;;13.80;99.90;;;;;;5313346;26;20021;-78
2024/04/14 03:21:02;;;;;;;1999.90;999.90;;;13.80;99.90;;;;;;5310912;26;20029;-79
2024/04/14 03:23:28;;;;;;;1999.90;999.90;;;13.70;99.90;;;;;;5312804;26;20027;-79
2024/04/14 03:25:55;;;;;;;1999.90;999.90;;;13.70;99.90;;;;;;5312477;26;20545;-79
2024/04/14 03:28:22;;;;;;;1999.90;999.90;;;13.80;99.90;;;;;;5313327;26;20026;-80
2024/04/14 03:30:48;;;;;;;1999.90;999.90;;;13.70;99.90;;;;;;5311220;26;20037;-79
2024/04/14 03:33:14;;;;;;;1999.90;999.90;;;13.40;99.90;;;;;;5312796;27;20033;-78
2024/04/14 03:35:40;;;;;;;1999.90;999.90;;;13.40;99.90;;;;;;5317615;26;20036;-79
2024/04/14 03:38:07;;;;;;;1999.90;999.90;;;13.40;99.90;;;;;;5347195;26;20024;-79
2024/04/14 03:40:33;;;;;;;1999.90;999.90;;;13.50;99.90;;;;;;5340885;26;20471;-78
2024/04/14 03:42:59;;;;;;;1999.90;999.90;;;13.50;99.90;;;;;;5312348;27;20026;-79
2024/04/14 03:45:25;;;;;;;1999.90;999.90;;;13.50;99.90;;;;;;5312144;26;20046;-79
2024/04/14 03:47:54;;;;;;;83.07;78.93;;;13.50;99.90;;;;;;5345174;26;20045;-79
2024/04/14 03:50:20;;;;;;;565.35;311.98;;;13.40;99.90;;;;;;5346513;26;20032;-79
2024/04/14 03:52:46;;;;;;;1999.90;999.90;;;13.40;99.90;;;;;;5346861;26;20045;-71
2024/04/14 03:55:12;;;;;;;226.10;214.57;;;13.40;99.90;;;;;;5345814;26;20025;-72
2024/04/14 03:57:38;;;;;;;219.93;208.32;;;13.40;99.90;;;;;;5313015;26;20470;-72
2024/04/14 04:00:06;;;;;;;75.38;71.53;;;13.50;99.90;;;;;;5311916;26;20025;-71
2024/04/14 04:02:32;;;;;;;48.80;46.15;;;13.40;99.90;;;;;;5312494;26;20046;-72
2024/04/14 04:04:58;;;;;;;86.13;81.22;;;13.40;99.90;;;;;;5312790;26;20025;-72
2024/04/14 04:07:24;;;;;;;61.53;58.45;;;13.40;99.90;;;;;;5312182;26;20034;-71
2024/04/14 04:09:50;;;;;;;71.00;67.50;;;13.30;99.90;;;;;;5312685;26;20029;-72
2024/04/14 04:12:16;;;;;;;87.30;82.90;;;13.50;99.90;;;;;;5312135;26;20038;-72
2024/04/14 04:14:43;;;;;;;91.10;86.20;;;13.40;99.90;;;;;;5311485;27;20025;-72
2024/04/14 04:17:09;;;;;;;63.53;59.97;;;13.40;99.90;;;;;;5311594;26;20373;-72
2024/04/14 04:19:35;;;;;;;98.82;93.75;;;13.40;99.90;;;;;;5312046;27;20054;-71
2024/04/14 04:22:02;;;;;;;98.72;93.50;;;13.10;99.90;;;;;;5312296;26;20058;-72
2024/04/14 04:24:28;;;;;;;95.15;89.82;;;13.20;99.90;;;;;;5311859;26;20021;-72
2024/04/14 04:26:54;;;;;;;108.13;102.22;;;13.30;99.90;;;;;;5312033;26;20045;-72
2024/04/14 04:29:20;;;;;;;80.45;76.47;;;13.20;99.90;;;;;;5313396;26;20025;-72
2024/04/14 04:31:46;;;;;;;53.13;50.17;;;13.20;99.90;;;;;;5310920;26;20034;-72
2024/04/14 04:34:12;;;;;;;89.55;85.10;;;13.10;99.90;;;;;;5312055;27;20030;-72
2024/04/14 04:36:39;;;;;;;57.00;54.13;;;13.10;99.90;;;;;;5331046;26;20033;-71
2024/04/14 04:39:06;;;;;;;143.48;136.02;;;13.20;99.90;;;;;;5346226;26;20030;-72
2024/04/14 04:41:32;;;;;;;52.97;50.35;;;13.20;99.90;;;;;;5325394;26;20395;-72
2024/04/14 04:43:58;;;;;;;61.42;58.33;;;13.10;99.90;;;;;;5311526;27;20034;-72
2024/04/14 04:46:24;;;;;;;59.28;56.28;;;13.20;99.90;;;;;;5321905;26;20040;-72
2024/04/14 04:48:51;;;;;;;42.50;40.17;;;13.30;99.90;;;;;;5344848;26;20026;-72
2024/04/14 04:51:18;;;;;;;46.70;44.42;;;13.10;99.90;;;;;;5345673;26;20025;-72
2024/04/14 04:53:44;;;;;;;56.05;53.28;;;12.90;99.90;;;;;;5346240;26;20510;-79
2024/04/14 04:56:10;;;;;;;46.88;44.53;;;13.00;99.90;;;;;;5344238;26;20065;-78
2024/04/14 04:58:36;;;;;;;55.95;53.15;;;12.90;99.90;;;;;;5346138;26;20029;-80
2024/04/14 05:01:03;;;;;;;74.25;70.47;;;13.10;99.90;;;;;;5338318;26;20058;-79
2024/04/14 05:03:29;;;;;;;40.05;38.05;;;13.00;99.90;;;;;;5311277;27;20373;-79
2024/04/14 05:05:59;;;;;;;57.63;54.80;;;13.10;99.90;;;;;;5310897;26;20038;-78
2024/04/14 05:08:26;;;;;;;44.70;42.50;;;13.20;99.90;;;;;;5311107;26;20030;-79
2024/04/14 05:10:53;;;;;;;95.03;90.18;;;13.20;99.90;;;;;;5311861;26;20033;-78
2024/04/14 05:13:19;;;;;;;73.20;69.55;;;13.20;99.90;;;;;;5312107;26;20030;-78
2024/04/14 05:15:45;;;;;;;59.88;56.90;;;13.10;99.90;;;;;;5310192;26;20033;-78
2024/04/14 05:18:11;;;;;;;47.38;45.05;;;13.00;99.90;;;;;;5311198;27;20030;-79
2024/04/14 05:20:37;;;;;;;37.53;35.72;;;13.00;99.90;;;;;;5310956;26;20363;-79
2024/04/14 05:23:04;;;;;;;86.00;81.47;;;12.90;99.90;;;;;;5309491;27;20021;-79
2024/04/14 05:25:30;;;;;;;38.15;36.30;;;12.90;99.90;;;;;;5310537;26;20033;-79
2024/04/14 05:27:56;;;;;;;69.47;65.88;;;12.70;99.90;;;;;;5310731;27;20029;-79
2024/04/14 05:30:22;;;;;;;29.23;27.83;;;12.70;99.90;;;;;;5311283;26;20062;-79
2024/04/14 05:32:51;;;;;;;53.20;50.65;;;12.70;99.90;;;;;;5311910;26;20021;-78
2024/04/14 05:35:17;;;;;;;35.53;33.80;;;12.70;99.90;;;;;;5310557;26;20021;-79
2024/04/14 05:37:43;;;;;;;29.83;28.42;;;12.80;99.90;;;;;;5345151;26;20025;-79
2024/04/14 05:40:10;;;;;;;38.55;36.75;;;12.90;99.90;;;;;;5344892;26;20473;-78
2024/04/14 05:42:36;;;;;;;31.13;29.58;;;13.00;99.90;;;;;;5307908;26;20041;-79
2024/04/14 05:45:02;;;;;;;57.45;54.58;;;13.10;99.90;;;;;;5309082;26;20030;-74
2024/04/14 05:47:28;;;;;;;47.83;45.38;;;13.10;99.90;;;;;;5336935;26;20028;-78
2024/04/14 05:49:55;;;;;;;49.15;46.08;;;13.00;99.90;;;;;;5345403;26;20040;-78
2024/04/14 05:52:21;;;;;;;41.10;39.13;;;13.10;99.90;;;;;;5345020;26;20041;-79
2024/04/14 05:54:47;;;;;;;44.50;42.35;;;13.10;99.90;;;;;;5348313;26;20029;-78
2024/04/14 05:57:14;;;;;;;43.53;41.45;;;13.10;99.90;;;;;;5318451;26;20029;-72
2024/04/14 05:59:40;;;;;;;41.67;39.70;;;13.10;99.90;;;;;;5314452;26;20034;-72
2024/04/14 06:02:06;;;;;;;53.08;48.88;;;13.20;99.90;;;;;;5312757;26;20049;-72
2024/04/14 06:04:32;;;;;;;33.13;31.58;;;13.30;99.90;;;;;;5314437;26;20433;-72
2024/04/14 06:06:58;;;;;;;26.35;25.10;;;13.20;99.90;;;;;;5313986;26;20033;-72
2024/04/14 06:09:24;;;;;;;26.08;24.85;;;13.10;99.90;;;;;;5314320;26;20027;-72
2024/04/14 06:11:50;;;;;;;47.50;45.20;;;13.20;99.90;;;;;;5313630;26;20467;-72
2024/04/14 06:14:16;;;;;;;47.03;44.80;;;13.20;99.90;;;;;;5313718;27;20025;-72
2024/04/14 06:16:42;;;;;;;78.53;74.78;;;13.30;99.90;;;;;;5313075;26;20491;-72
2024/04/14 06:19:08;;;;;;;34.67;33.03;;;13.30;99.90;;;;;;5313727;27;20022;-72
2024/04/14 06:21:35;;;;;;;30.20;28.48;;;13.20;99.90;;;;;;5311634;26;20373;-72
2024/04/14 06:24:01;;;;;;;22.75;21.20;;;13.20;99.90;;;;;;5313832;27;20031;-72
2024/04/14 06:26:27;;;;;;;26.25;25.05;;;13.00;99.90;;;;;;5312736;26;20042;-72
2024/04/14 06:28:53;;;;;;;16.60;15.80;;;13.10;99.90;;;;;;5314077;26;20029;-72
2024/04/14 06:31:20;;;;;;;21.65;20.65;;;13.30;99.90;;;;;;5312937;26;20038;-72
2024/04/14 06:33:46;;;;;;;26.77;25.42;;;13.20;99.90;;;;;;5313974;26;20025;-72
2024/04/14 06:36:13;;;;;;;25.60;24.15;;;13.30;99.90;;;;;;5313289;26;20077;-72
2024/04/14 06:38:44;;;;;;;29.55;27.98;;;13.30;99.90;;;;;;5313897;26;20021;-72
2024/04/14 06:41:12;;;;;;;22.83;21.70;;;13.30;99.90;;;;;;5313246;26;20378;-72
2024/04/14 06:43:38;;;;;;;23.55;22.38;;;13.30;99.90;;;;;;5313762;26;20026;-72
2024/04/14 06:46:05;;;;;;;71.28;67.28;;;13.40;99.90;;;;;;5319503;26;20032;-71
2024/04/14 06:48:32;;;;;;;21.48;20.48;;;13.30;99.90;;;;;;5348030;26;20024;-72
2024/04/14 06:50:58;;;;;;;21.95;20.80;;;13.30;99.90;;;;;;5347668;26;20044;-72
2024/04/14 06:53:24;;;;;;;30.58;29.00;;;13.30;99.90;;;;;;5348417;26;20373;-72
2024/04/14 06:55:51;;;;;;;40.83;38.83;;;13.30;99.90;;;;;;5337434;26;20026;-71
2024/04/14 06:58:17;;;;;;;35.08;33.38;;;13.20;99.90;;;;;;5313585;26;20025;-78
2024/04/14 07:00:43;;;;;;;25.88;24.63;;;13.30;99.90;;;;;;5310795;26;20451;-76
2024/04/14 07:03:11;;;;;;;29.38;27.88;;;13.40;99.90;;;;;;5311452;27;20026;-79
2024/04/14 07:05:37;;;;;;;28.55;27.08;;;13.40;99.90;;;;;;5313040;26;20042;-79
2024/04/14 07:08:04;;;;;;;26.83;25.10;;;13.50;99.90;;;;;;5312438;27;20042;-78
2024/04/14 07:10:30;;;;;;;109.95;104.63;;;13.60;99.90;;;;;;5312470;26;20041;-78
2024/04/14 07:12:56;;;;;;;46.65;44.28;;;13.60;99.90;;;;;;5313722;26;20378;-78
2024/04/14 07:15:22;;;;;;;158.45;150.73;;;13.70;99.90;;;;;;5313068;26;20050;-79
2024/04/14 07:17:48;;;;;;;124.72;118.55;;;13.70;99.90;;;;;;5312872;27;20038;-80
2024/04/14 07:20:15;;;;;;;72.63;68.82;;;13.70;99.90;;;;;;5312322;26;20018;-80
2024/04/14 07:22:41;;;;;;;50.33;47.88;;;13.60;99.90;;;;;;5312539;27;20025;-79
2024/04/14 07:25:07;;;;;;;62.05;59.05;;;13.60;99.90;;;;;;5312423;27;20034;-78
2024/04/14 07:27:33;;;;;;;41.88;39.75;;;13.70;99.90;;;;;;5312369;26;20034;-78
2024/04/14 07:29:59;;;;;;;104.88;99.55;;;13.90;99.90;;;;;;5312873;27;20032;-79
2024/04/14 07:32:25;;;;;;;89.13;84.82;;;14.00;99.90;;;;;;5311649;26;20049;-80
2024/04/14 07:34:51;;;;;;;51.75;48.65;;;14.10;99.90;;;;;;5313618;26;20029;-81
2024/04/14 07:37:17;;;;;;;55.28;52.35;;;14.30;99.90;;;;;;5340902;26;20371;-78
2024/04/14 07:39:43;;;;;;;80.20;76.32;;;14.20;99.90;;;;;;5346818;26;20044;-78
2024/04/14 07:42:09;;;;;;;30.25;28.73;;;14.20;99.90;;;;;;5318345;26;20037;-79
2024/04/14 07:44:36;;;;;;;154.10;146.25;;;14.50;99.90;;;;;;5312349;27;20133;-81
2024/04/14 07:47:02;;;;;;;105.43;99.95;;;14.70;99.90;;;;;;5331663;26;20379;-79
2024/04/14 07:49:28;;;;;;;67.70;64.13;;;14.70;99.90;;;;;;5346886;26;20028;-80
2024/04/14 07:51:54;;;;;;;59.22;56.30;;;14.80;99.90;;;;;;5346027;26;20032;-79
2024/04/14 07:54:20;;;;;;;53.17;50.47;;;14.90;99.90;;;;;;5346722;26;20025;-80
2024/04/14 07:56:46;;;;;;;53.22;50.22;;;15.10;99.90;;;;;;5346010;26;20037;-78
2024/04/14 07:59:12;;;;;;;56.70;53.75;;;15.10;99.90;;;;;;5347187;26;20377;-80
2024/04/14 08:01:38;;;;;;;49.90;47.42;;;15.30;99.90;;;;;;5324804;26;20033;-80
2024/04/14 08:04:04;;;;;;;70.25;66.75;;;15.60;99.90;;;;;;5312317;26;20026;-79
2024/04/14 08:06:31;;;;;;;108.30;101.90;;;15.80;99.90;;;;;;5311456;26;20026;-80
2024/04/14 08:08:57;;;;;;;49.25;46.75;;;15.90;99.90;;;;;;5311036;26;20029;-78
2024/04/14 08:11:24;;;;;;;37.25;35.50;;;16.00;99.90;;;;;;5313180;26;20367;-72
2024/04/14 08:13:51;;;;;;;29.65;28.20;;;16.20;99.90;;;;;;5312521;26;20021;-72
2024/04/14 08:16:17;;;;;;;77.63;73.85;;;16.30;99.90;;;;;;5310615;26;20045;-72
2024/04/14 08:18:46;;;;;;;186.50;177.32;;;16.40;99.90;;;;;;5312689;26;20034;-72
2024/04/14 08:21:12;;;;;;;125.00;118.90;;;16.60;99.90;;;;;;5311238;26;20029;-72
2024/04/14 08:23:38;;;;;;;123.25;117.07;;;16.80;99.90;;;;;;5310315;27;20037;-72
2024/04/14 08:26:05;;;;;;;112.20;106.78;;;17.10;99.90;;;;;;5311475;26;20065;-72
2024/04/14 08:28:31;;;;;;;115.22;109.43;;;17.40;99.90;;;;;;5312464;26;20021;-72
2024/04/14 08:30:57;;;;;;;37.70;35.90;;;17.70;99.90;;;;;;5311641;26;20487;-72
2024/04/14 08:33:23;;;;;;;1999.90;999.90;;;17.80;99.90;;;;;;5312486;26;20022;-72
2024/04/14 08:35:49;;;;;;;1999.90;999.90;;;17.70;99.90;;;;;;5318645;26;20482;-72
2024/04/14 08:38:16;;;;;;;1999.90;999.90;;;17.70;99.90;;;;;;5345664;26;20037;-72
2024/04/14 08:40:52;;;;;;;1999.90;999.90;;;17.70;99.90;;;;;;5338182;26;20039;-72
2024/04/14 08:43:19;;;;;;;1999.90;999.90;;;17.70;99.90;;;;;;5312437;26;20439;-72
2024/04/14 08:45:45;;;;;;;1999.90;999.90;;;17.30;99.90;;;;;;5312933;26;20411;-72
2024/04/14 08:48:13;;;;;;;1999.90;999.90;;;17.40;99.90;;;;;;5346099;26;20108;-72
2024/04/14 08:50:39;;;;;;;1999.90;999.90;;;17.40;99.90;;;;;;5343364;26;20486;-72
2024/04/14 08:53:08;;;;;;;1999.90;999.90;;;17.50;99.90;;;;;;5344477;26;20485;-72
2024/04/14 08:55:36;;;;;;;1999.90;999.90;;;17.70;99.90;;;;;;5337700;26;20079;-72
2024/04/14 08:58:04;;;;;;;1999.90;999.90;;;17.40;99.90;;;;;;5281831;27;20553;-74
2024/04/14 09:00:30;;;;;;;1999.90;999.90;;;17.60;99.90;;;;;;5308692;26;20938;-72
2024/04/14 09:02:57;;;;;;;1999.90;999.90;;;17.80;99.90;;;;;;5309858;27;20037;-72
2024/04/14 09:05:23;;;;;;;1999.90;999.90;;;18.00;99.90;;;;;;5309147;26;20077;-72
2024/04/14 09:07:56;;;;;;;1999.90;999.90;;;18.30;99.90;;;;;;5311267;26;20026;-72
2024/04/14 09:10:26;;;;;;;1999.90;999.90;;;18.40;99.90;;;;;;5310944;26;20042;-72
2024/04/14 09:12:55;;;;;;;1999.90;999.90;;;18.50;99.90;;;;;;5311973;26;20025;-72
2024/04/14 09:15:21;;;;;;;1999.90;999.90;;;18.70;99.90;;;;;;5310834;26;20029;-72
2024/04/14 09:17:47;;;;;;;1999.90;999.90;;;18.60;99.90;;;;;;5311175;27;20478;-72
2024/04/14 09:20:13;;;;;;;1999.90;999.90;;;18.30;99.90;;;;;;5309161;26;20038;-78
2024/04/14 09:22:39;;;;;;;1999.90;999.90;;;18.60;99.90;;;;;;5309665;27;20065;-78
2024/04/14 09:25:07;;;;;;;1999.90;999.90;;;18.60;99.90;;;;;;5310871;27;20030;-78
2024/04/14 09:27:34;;;;;;;1999.90;999.90;;;18.80;99.90;;;;;;5309159;26;20030;-77
2024/04/14 09:30:18;;;;;;;1999.90;999.90;;;18.90;99.90;;;;;;5309621;27;20352;-78
2024/04/14 09:32:45;;;;;;;1999.90;999.90;;;19.00;99.90;;;;;;5307644;27;20462;-76
2024/04/14 09:35:11;;;;;;;1999.90;999.90;;;18.90;99.90;;;;;;5307947;27;20109;-78
2024/04/14 09:37:38;;;;;;;1999.90;999.90;;;18.90;99.90;;;;;;5276532;26;20659;-77
2024/04/14 09:40:06;;;;;;;1999.90;999.90;;;18.70;99.90;;;;;;5275301;27;20487;-77
2024/04/14 09:42:35;;;;;;;1999.90;999.90;;;18.70;99.90;;;;;;5310889;26;20029;-78
2024/04/14 09:45:05;;;;;;;1999.90;999.90;;;18.70;99.90;;;;;;5311229;26;20034;-79
2024/04/14 09:47:31;;;;;;;1999.90;999.90;;;18.90;99.90;;;;;;5337269;26;20508;-78
2024/04/14 09:49:57;;;;;;;1999.90;999.90;;;18.90;99.90;;;;;;5345501;26;20017;-77
2024/04/14 09:52:23;;;;;;;1999.90;999.90;;;19.00;99.90;;;;;;5342622;26;20025;-77
2024/04/14 09:54:52;;;;;;;1999.90;999.90;;;19.20;99.90;;;;;;5342980;26;20021;-78
2024/04/14 09:57:21;;;;;;;1999.90;999.90;;;19.60;99.90;;;;;;5312741;26;20033;-78
2024/04/14 09:59:47;;;;;;;1999.90;999.90;;;19.60;99.90;;;;;;5309390;26;20029;-80
2024/04/14 10:02:16;;;;;;;1999.90;999.90;;;19.50;99.90;;;;;;5309740;26;20045;-80
2024/04/14 10:04:46;;;;;;;1999.90;999.90;;;19.60;99.90;;;;;;5309404;26;20371;-81
2024/04/14 10:07:12;;;;;;;1999.90;999.90;;;19.40;99.90;;;;;;5337627;26;20033;-80
2024/04/14 10:09:41;;;;;;;1999.90;999.90;;;19.40;99.90;;;;;;5314564;26;20028;-80
2024/04/14 10:12:07;;;;;;;1999.90;999.90;;;19.50;99.90;;;;;;5314473;26;20032;-79
2024/04/14 10:14:43;;;;;;;1999.90;999.90;;;19.60;99.90;;;;;;5343088;26;20025;-81
2024/04/14 10:17:11;;;;;;;1999.90;999.90;;;19.50;99.90;;;;;;5342610;26;20040;-80
2024/04/14 10:19:37;;;;;;;1999.90;999.90;;;19.50;99.90;;;;;;5344563;26;20025;-79
2024/04/14 10:22:10;;;;;;;1999.90;999.90;;;19.60;99.90;;;;;;5317137;26;20042;-71
2024/04/14 10:24:49;;;;;;;1999.90;999.90;;;19.70;99.90;;;;;;5308963;27;20404;-71
2024/04/14 10:27:15;;;;;;;1999.90;999.90;;;19.50;99.90;;;;;;5310004;26;20025;-71
2024/04/14 10:29:44;;;;;;;1999.90;999.90;;;19.40;99.90;;;;;;5310805;26;20037;-71
2024/04/14 10:32:12;;;;;;;1999.90;999.90;;;19.40;99.90;;;;;;5309381;26;20486;-71
2024/04/14 10:34:39;;;;;;;1999.90;999.90;;;19.60;99.90;;;;;;5308507;27;20025;-71
2024/04/14 10:37:05;;;;;;;1999.90;999.90;;;20.00;99.90;;;;;;5335562;26;20481;-72
2024/04/14 10:39:31;;;;;;;1999.90;999.90;;;20.30;99.90;;;;;;5346591;26;20033;-71
2024/04/14 10:41:58;;;;;;;1999.90;999.90;;;20.10;99.90;;;;;;5322671;26;20034;-71
2024/04/14 10:44:24;;;;;;;1999.90;999.90;;;20.10;99.90;;;;;;5313539;27;20025;-71
2024/04/14 10:46:51;;;;;;;1999.90;999.90;;;20.10;99.90;;;;;;5329530;26;20039;-72
2024/04/14 10:49:17;;;;;;;1999.90;999.90;;;20.30;99.90;;;;;;5346413;26;20024;-71
2024/04/14 10:51:43;;;;;;;1999.90;999.90;;;20.40;99.90;;;;;;5344892;26;20466;-71
2024/04/14 10:54:09;;;;;;;1999.90;999.90;;;20.60;99.90;;;;;;5348265;26;20021;-71
2024/04/14 10:56:35;;;;;;;1999.90;999.90;;;20.50;99.90;;;;;;5327471;26;20025;-71
2024/04/14 10:59:01;;;;;;;1999.90;999.90;;;20.50;99.90;;;;;;5313938;26;20018;-71
2024/04/14 11:01:27;;;;;;;1999.90;999.90;;;20.50;99.90;;;;;;5312380;26;20038;-71
2024/04/14 11:03:54;;;;;;;1999.90;999.90;;;20.50;99.90;;;;;;5313780;26;20033;-72
2024/04/14 11:06:20;;;;;;;1999.90;999.90;;;20.40;99.90;;;;;;5311036;26;20041;-72
2024/04/14 11:08:46;;;;;;;1999.90;999.90;;;20.30;99.90;;;;;;5313189;27;20022;-70
2024/04/14 11:11:12;;;;;;;1999.90;999.90;;;20.10;99.90;;;;;;5283039;27;20035;-71
2024/04/14 11:13:39;;;;;;;1999.90;999.90;;;20.00;99.90;;;;;;5311402;27;20371;-71
2024/04/14 11:16:06;;;;;;;1999.90;999.90;;;20.20;99.90;;;;;;5312246;26;20038;-70
2024/04/14 11:18:33;;;;;;;1999.90;999.90;;;20.30;99.90;;;;;;5313127;26;20038;-71
2024/04/14 11:20:59;;;;;;;1999.90;999.90;;;20.40;99.90;;;;;;5313573;26;20034;-71
2024/04/14 11:23:26;;;;;;;1999.90;999.90;;;20.70;99.90;;;;;;5311325;27;20030;-70
2024/04/14 11:25:52;;;;;;;1999.90;999.90;;;20.80;99.90;;;;;;5313080;26;20034;-78
2024/04/14 11:28:19;;;;;;;1999.90;999.90;;;20.80;99.90;;;;;;5311186;27;20029;-79
2024/04/14 11:30:46;;;;;;;1999.90;999.90;;;20.90;99.90;;;;;;5309636;26;20046;-78
2024/04/14 11:33:12;;;;;;;1999.90;999.90;;;20.90;99.90;;;;;;5311621;26;20490;-79
2024/04/14 11:35:38;;;;;;;1999.90;999.90;;;21.00;99.90;;;;;;5317164;26;20037;-79
2024/04/14 11:38:05;;;;;;;1999.90;999.90;;;20.90;99.90;;;;;;5344372;26;20024;-77
2024/04/14 11:40:31;;;;;;;1999.90;999.90;;;21.00;99.90;;;;;;5342235;26;20477;-79
2024/04/14 11:42:57;;;;;;;1999.90;999.90;;;21.30;99.90;;;;;;5312624;27;20026;-80
2024/04/14 11:45:23;;;;;;;1999.90;999.90;;;21.30;99.90;;;;;;5311234;26;20037;-79
2024/04/14 11:47:50;;;;;;;1999.90;999.90;;;21.20;99.90;;;;;;5343878;26;20029;-79
2024/04/14 11:50:16;;;;;;;1999.90;999.90;;;21.40;99.90;;;;;;5345241;26;20366;-78
2024/04/14 11:52:42;;;;;;;1999.90;999.90;;;21.80;99.90;;;;;;5347374;26;20616;-78
2024/04/14 11:55:08;;;;;;;1999.90;999.90;;;21.50;99.90;;;;;;5346772;26;20032;-79
2024/04/14 11:57:35;;;;;;;1999.90;999.90;;;21.40;99.90;;;;;;5346612;26;20033;-79
2024/04/14 12:00:01;;;;;;;1999.90;999.90;;;21.50;99.90;;;;;;5347011;26;20033;-79
2024/04/14 12:02:27;;;;;;;1999.90;999.90;;;21.30;99.90;;;;;;5311598;26;20045;-78
2024/04/14 12:04:53;;;;;;;1999.90;999.90;;;21.00;99.90;;;;;;5311934;27;20037;-79